sensor_id;sensor_type;location;lat;lon;timestamp;P1;durP1;ratioP1;P2;durP2;ratioP2
1829;SDS011;914;48.118;11.600;2023-04-10T00:00:42;11.70;;;9.63;;
1829;SDS011;914;48.118;11.600;2023-04-10T00:03:09;11.03;;;9.73;;
1829;SDS011;914;48.118;11.600;2023-04-10T00:05:35;10.60;;;9.07;;
1829;SDS011;914;48.118;11.600;2023-04-10T00:08:01;11.67;;;9.60;;
1829;SDS011;914;48.118;11.600;2023-04-10T00:10:27;11.13;;;9.50;;
1829;SDS011;914;48.118;11.600;2023-04-10T00:12:55;11.10;;;9.57;;
1829;SDS011;914;48.118;11.600;2023-04-10T00:15:21;11.53;;;9.73;;
1829;SDS011;914;48.118;11.600;2023-04-10T00:17:47;10.47;;;8.63;;
1829;SDS011;914;48.118;11.600;2023-04-10T00:20:16;11.27;;;8.90;;
1829;SDS011;914;48.118;11.600;2023-04-10T00:22:41;10.70;;;8.23;;
1829;SDS011;914;48.118;11.600;2023-04-10T00:25:07;10.93;;;8.83;;
1829;SDS011;914;48.118;11.600;2023-04-10T00:27:32;11.13;;;8.70;;
1829;SDS011;914;48.118;11.600;2023-04-10T00:29:58;10.27;;;9.10;;
1829;SDS011;914;48.118;11.600;2023-04-10T00:32:24;10.10;;;8.60;;
1829;SDS011;914;48.118;11.600;2023-04-10T00:34:49;9.70;;;8.40;;
1829;SDS011;914;48.118;11.600;2023-04-10T00:37:15;11.97;;;8.53;;
1829;SDS011;914;48.118;11.600;2023-04-10T00:39:41;8.83;;;7.93;;
1829;SDS011;914;48.118;11.600;2023-04-10T00:42:07;10.33;;;8.33;;
1829;SDS011;914;48.118;11.600;2023-04-10T00:44:34;10.63;;;8.40;;
1829;SDS011;914;48.118;11.600;2023-04-10T00:47:02;9.67;;;8.67;;
1829;SDS011;914;48.118;11.600;2023-04-10T00:49:29;10.90;;;9.07;;
1829;SDS011;914;48.118;11.600;2023-04-10T00:51:55;9.43;;;8.20;;
1829;SDS011;914;48.118;11.600;2023-04-10T00:54:21;9.33;;;8.27;;
1829;SDS011;914;48.118;11.600;2023-04-10T00:56:47;10.27;;;8.73;;
1829;SDS011;914;48.118;11.600;2023-04-10T00:59:14;11.37;;;9.10;;
1829;SDS011;914;48.118;11.600;2023-04-10T01:01:40;10.47;;;8.83;;
1829;SDS011;914;48.118;11.600;2023-04-10T01:04:06;10.40;;;8.63;;
1829;SDS011;914;48.118;11.600;2023-04-10T01:06:46;9.40;;;8.17;;
1829;SDS011;914;48.118;11.600;2023-04-10T01:17:31;9.03;;;7.60;;
1829;SDS011;914;48.118;11.600;2023-04-10T01:20:12;9.33;;;8.30;;
1829;SDS011;914;48.118;11.600;2023-04-10T01:30:44;9.97;;;8.20;;
1829;SDS011;914;48.118;11.600;2023-04-10T01:33:12;9.53;;;8.13;;
1829;SDS011;914;48.118;11.600;2023-04-10T01:35:46;9.03;;;7.67;;
1829;SDS011;914;48.118;11.600;2023-04-10T01:38:16;8.53;;;7.27;;
1829;SDS011;914;48.118;11.600;2023-04-10T01:40:44;8.00;;;7.13;;
1829;SDS011;914;48.118;11.600;2023-04-10T01:43:17;9.27;;;7.77;;
1829;SDS011;914;48.118;11.600;2023-04-10T01:45:45;8.73;;;6.93;;
1829;SDS011;914;48.118;11.600;2023-04-10T01:48:13;8.03;;;7.13;;
1829;SDS011;914;48.118;11.600;2023-04-10T01:50:41;8.70;;;7.23;;
1829;SDS011;914;48.118;11.600;2023-04-10T01:53:08;8.57;;;7.13;;
1829;SDS011;914;48.118;11.600;2023-04-10T01:55:35;9.10;;;7.33;;
1829;SDS011;914;48.118;11.600;2023-04-10T01:58:02;8.90;;;7.43;;
1829;SDS011;914;48.118;11.600;2023-04-10T02:00:38;8.37;;;6.70;;
1829;SDS011;914;48.118;11.600;2023-04-10T02:03:05;7.93;;;7.07;;
1829;SDS011;914;48.118;11.600;2023-04-10T02:05:34;8.17;;;7.37;;
1829;SDS011;914;48.118;11.600;2023-04-10T02:08:11;7.10;;;6.40;;
1829;SDS011;914;48.118;11.600;2023-04-10T02:11:11;7.47;;;6.67;;
1829;SDS011;914;48.118;11.600;2023-04-10T02:13:41;8.40;;;6.83;;
1829;SDS011;914;48.118;11.600;2023-04-10T02:16:07;8.47;;;6.77;;
1829;SDS011;914;48.118;11.600;2023-04-10T02:18:35;8.07;;;6.93;;
1829;SDS011;914;48.118;11.600;2023-04-10T02:21:02;8.70;;;7.33;;
1829;SDS011;914;48.118;11.600;2023-04-10T02:23:28;8.67;;;7.23;;
1829;SDS011;914;48.118;11.600;2023-04-10T02:25:54;9.00;;;6.63;;
1829;SDS011;914;48.118;11.600;2023-04-10T02:28:21;8.07;;;6.70;;
1829;SDS011;914;48.118;11.600;2023-04-10T02:30:46;7.40;;;6.50;;
1829;SDS011;914;48.118;11.600;2023-04-10T02:33:12;8.20;;;7.00;;
1829;SDS011;914;48.118;11.600;2023-04-10T02:35:38;8.30;;;7.03;;
1829;SDS011;914;48.118;11.600;2023-04-10T02:38:04;8.07;;;7.03;;
1829;SDS011;914;48.118;11.600;2023-04-10T02:40:29;8.77;;;7.10;;
1829;SDS011;914;48.118;11.600;2023-04-10T02:42:55;7.80;;;6.77;;
1829;SDS011;914;48.118;11.600;2023-04-10T02:45:20;8.53;;;6.87;;
1829;SDS011;914;48.118;11.600;2023-04-10T02:47:46;9.03;;;7.80;;
1829;SDS011;914;48.118;11.600;2023-04-10T02:50:12;8.20;;;7.17;;
1829;SDS011;914;48.118;11.600;2023-04-10T02:52:37;7.67;;;6.47;;
1829;SDS011;914;48.118;11.600;2023-04-10T02:55:03;7.27;;;6.10;;
1829;SDS011;914;48.118;11.600;2023-04-10T02:57:30;7.93;;;6.90;;
1829;SDS011;914;48.118;11.600;2023-04-10T02:59:56;7.53;;;6.47;;
1829;SDS011;914;48.118;11.600;2023-04-10T03:02:22;8.40;;;7.03;;
1829;SDS011;914;48.118;11.600;2023-04-10T03:04:47;8.50;;;7.20;;
1829;SDS011;914;48.118;11.600;2023-04-10T03:07:13;7.33;;;6.53;;
1829;SDS011;914;48.118;11.600;2023-04-10T03:09:39;8.40;;;6.77;;
1829;SDS011;914;48.118;11.600;2023-04-10T03:12:05;8.63;;;7.03;;
1829;SDS011;914;48.118;11.600;2023-04-10T03:14:30;9.97;;;7.30;;
1829;SDS011;914;48.118;11.600;2023-04-10T03:16:56;8.27;;;6.80;;
1829;SDS011;914;48.118;11.600;2023-04-10T03:19:21;8.47;;;7.13;;
1829;SDS011;914;48.118;11.600;2023-04-10T03:21:47;8.50;;;6.97;;
1829;SDS011;914;48.118;11.600;2023-04-10T03:24:13;7.47;;;6.20;;
1829;SDS011;914;48.118;11.600;2023-04-10T03:26:38;9.17;;;6.30;;
1829;SDS011;914;48.118;11.600;2023-04-10T03:29:04;8.17;;;6.80;;
1829;SDS011;914;48.118;11.600;2023-04-10T03:31:29;8.20;;;7.03;;
1829;SDS011;914;48.118;11.600;2023-04-10T03:33:55;8.53;;;6.57;;
1829;SDS011;914;48.118;11.600;2023-04-10T03:36:21;8.07;;;7.20;;
1829;SDS011;914;48.118;11.600;2023-04-10T03:38:46;9.23;;;7.27;;
1829;SDS011;914;48.118;11.600;2023-04-10T03:41:12;7.83;;;6.90;;
1829;SDS011;914;48.118;11.600;2023-04-10T03:43:38;8.33;;;6.60;;
1829;SDS011;914;48.118;11.600;2023-04-10T03:46:04;8.43;;;6.53;;
1829;SDS011;914;48.118;11.600;2023-04-10T03:48:30;8.03;;;6.83;;
1829;SDS011;914;48.118;11.600;2023-04-10T03:50:56;8.23;;;6.80;;
1829;SDS011;914;48.118;11.600;2023-04-10T03:53:22;8.17;;;6.70;;
1829;SDS011;914;48.118;11.600;2023-04-10T03:55:48;8.43;;;7.10;;
1829;SDS011;914;48.118;11.600;2023-04-10T03:58:16;8.43;;;7.03;;
1829;SDS011;914;48.118;11.600;2023-04-10T04:00:42;9.50;;;6.93;;
1829;SDS011;914;48.118;11.600;2023-04-10T04:03:08;7.63;;;6.67;;
1829;SDS011;914;48.118;11.600;2023-04-10T04:05:34;8.30;;;6.63;;
1829;SDS011;914;48.118;11.600;2023-04-10T04:07:59;6.90;;;6.17;;
1829;SDS011;914;48.118;11.600;2023-04-10T04:10:25;8.03;;;6.90;;
1829;SDS011;914;48.118;11.600;2023-04-10T04:12:51;10.37;;;7.30;;
1829;SDS011;914;48.118;11.600;2023-04-10T04:15:16;9.07;;;7.20;;
1829;SDS011;914;48.118;11.600;2023-04-10T04:17:42;8.87;;;7.40;;
1829;SDS011;914;48.118;11.600;2023-04-10T04:20:11;9.97;;;6.90;;
1829;SDS011;914;48.118;11.600;2023-04-10T04:22:36;8.90;;;6.93;;
1829;SDS011;914;48.118;11.600;2023-04-10T04:25:02;9.53;;;7.53;;
1829;SDS011;914;48.118;11.600;2023-04-10T04:27:32;10.20;;;7.53;;
1829;SDS011;914;48.118;11.600;2023-04-10T04:29:58;7.90;;;6.67;;
1829;SDS011;914;48.118;11.600;2023-04-10T04:32:23;9.37;;;7.87;;
1829;SDS011;914;48.118;11.600;2023-04-10T04:34:49;11.63;;;7.37;;
1829;SDS011;914;48.118;11.600;2023-04-10T04:37:15;11.97;;;7.83;;
1829;SDS011;914;48.118;11.600;2023-04-10T04:39:40;10.03;;;7.73;;
1829;SDS011;914;48.118;11.600;2023-04-10T04:42:06;10.43;;;8.03;;
1829;SDS011;914;48.118;11.600;2023-04-10T04:44:31;9.33;;;7.83;;
1829;SDS011;914;48.118;11.600;2023-04-10T04:46:57;9.10;;;7.47;;
1829;SDS011;914;48.118;11.600;2023-04-10T04:49:23;10.43;;;8.37;;
1829;SDS011;914;48.118;11.600;2023-04-10T04:51:48;8.67;;;7.57;;
1829;SDS011;914;48.118;11.600;2023-04-10T04:54:14;12.47;;;7.47;;
1829;SDS011;914;48.118;11.600;2023-04-10T04:56:39;9.93;;;7.93;;
1829;SDS011;914;48.118;11.600;2023-04-10T04:59:05;10.07;;;8.00;;
1829;SDS011;914;48.118;11.600;2023-04-10T05:01:31;10.07;;;8.70;;
1829;SDS011;914;48.118;11.600;2023-04-10T05:03:56;11.27;;;8.27;;
1829;SDS011;914;48.118;11.600;2023-04-10T05:06:22;14.53;;;8.37;;
1829;SDS011;914;48.118;11.600;2023-04-10T05:08:48;10.50;;;8.20;;
1829;SDS011;914;48.118;11.600;2023-04-10T05:11:13;13.17;;;8.60;;
1829;SDS011;914;48.118;11.600;2023-04-10T05:13:39;10.33;;;8.33;;
1829;SDS011;914;48.118;11.600;2023-04-10T05:16:05;9.43;;;8.40;;
1829;SDS011;914;48.118;11.600;2023-04-10T05:18:31;9.13;;;8.00;;
1829;SDS011;914;48.118;11.600;2023-04-10T05:20:58;10.03;;;8.27;;
1829;SDS011;914;48.118;11.600;2023-04-10T05:23:24;9.40;;;7.73;;
1829;SDS011;914;48.118;11.600;2023-04-10T05:25:50;8.90;;;7.53;;
1829;SDS011;914;48.118;11.600;2023-04-10T05:28:16;10.33;;;8.27;;
1829;SDS011;914;48.118;11.600;2023-04-10T05:30:42;9.67;;;7.87;;
1829;SDS011;914;48.118;11.600;2023-04-10T05:33:07;9.63;;;7.73;;
1829;SDS011;914;48.118;11.600;2023-04-10T05:35:33;9.80;;;7.77;;
1829;SDS011;914;48.118;11.600;2023-04-10T05:37:59;9.77;;;7.70;;
1829;SDS011;914;48.118;11.600;2023-04-10T05:40:25;12.03;;;8.40;;
1829;SDS011;914;48.118;11.600;2023-04-10T05:42:50;8.93;;;7.80;;
1829;SDS011;914;48.118;11.600;2023-04-10T05:45:16;9.33;;;7.93;;
1829;SDS011;914;48.118;11.600;2023-04-10T05:47:42;8.60;;;7.20;;
1829;SDS011;914;48.118;11.600;2023-04-10T05:50:08;12.23;;;7.80;;
1829;SDS011;914;48.118;11.600;2023-04-10T05:52:34;8.80;;;7.70;;
1829;SDS011;914;48.118;11.600;2023-04-10T05:55:00;8.57;;;7.33;;
1829;SDS011;914;48.118;11.600;2023-04-10T05:57:28;9.67;;;7.87;;
1829;SDS011;914;48.118;11.600;2023-04-10T05:59:53;9.27;;;8.00;;
1829;SDS011;914;48.118;11.600;2023-04-10T06:02:19;9.03;;;7.77;;
1829;SDS011;914;48.118;11.600;2023-04-10T06:04:48;8.33;;;7.40;;
1829;SDS011;914;48.118;11.600;2023-04-10T06:07:14;9.70;;;8.10;;
1829;SDS011;914;48.118;11.600;2023-04-10T06:09:40;10.13;;;7.77;;
1829;SDS011;914;48.118;11.600;2023-04-10T06:12:05;9.90;;;7.60;;
1829;SDS011;914;48.118;11.600;2023-04-10T06:14:31;9.50;;;8.10;;
1829;SDS011;914;48.118;11.600;2023-04-10T06:16:56;9.23;;;7.40;;
1829;SDS011;914;48.118;11.600;2023-04-10T06:19:22;9.07;;;7.80;;
1829;SDS011;914;48.118;11.600;2023-04-10T06:21:48;9.23;;;8.03;;
1829;SDS011;914;48.118;11.600;2023-04-10T06:24:14;9.20;;;7.67;;
1829;SDS011;914;48.118;11.600;2023-04-10T06:26:39;8.17;;;7.30;;
1829;SDS011;914;48.118;11.600;2023-04-10T06:29:05;9.23;;;7.53;;
1829;SDS011;914;48.118;11.600;2023-04-10T06:31:32;8.50;;;7.60;;
1829;SDS011;914;48.118;11.600;2023-04-10T06:33:58;9.03;;;7.60;;
1829;SDS011;914;48.118;11.600;2023-04-10T06:36:24;8.87;;;7.70;;
1829;SDS011;914;48.118;11.600;2023-04-10T06:38:51;7.67;;;6.87;;
1829;SDS011;914;48.118;11.600;2023-04-10T06:41:17;8.53;;;7.27;;
1829;SDS011;914;48.118;11.600;2023-04-10T06:43:42;9.53;;;7.30;;
1829;SDS011;914;48.118;11.600;2023-04-10T06:46:09;11.13;;;7.60;;
1829;SDS011;914;48.118;11.600;2023-04-10T06:48:35;9.90;;;7.00;;
1829;SDS011;914;48.118;11.600;2023-04-10T06:51:01;9.30;;;7.10;;
1829;SDS011;914;48.118;11.600;2023-04-10T06:53:27;9.10;;;7.40;;
1829;SDS011;914;48.118;11.600;2023-04-10T06:55:53;8.63;;;7.00;;
1829;SDS011;914;48.118;11.600;2023-04-10T06:58:19;8.30;;;6.73;;
1829;SDS011;914;48.118;11.600;2023-04-10T07:00:45;7.77;;;6.70;;
1829;SDS011;914;48.118;11.600;2023-04-10T07:03:10;8.30;;;6.73;;
1829;SDS011;914;48.118;11.600;2023-04-10T07:05:36;7.47;;;6.60;;
1829;SDS011;914;48.118;11.600;2023-04-10T07:08:02;6.87;;;6.00;;
1829;SDS011;914;48.118;11.600;2023-04-10T07:10:27;8.73;;;7.00;;
1829;SDS011;914;48.118;11.600;2023-04-10T07:12:53;8.33;;;7.30;;
1829;SDS011;914;48.118;11.600;2023-04-10T07:15:21;7.20;;;6.47;;
1829;SDS011;914;48.118;11.600;2023-04-10T07:17:47;7.90;;;6.97;;
1829;SDS011;914;48.118;11.600;2023-04-10T07:20:12;7.67;;;6.90;;
1829;SDS011;914;48.118;11.600;2023-04-10T07:22:38;7.50;;;6.70;;
1829;SDS011;914;48.118;11.600;2023-04-10T07:25:04;7.50;;;6.70;;
1829;SDS011;914;48.118;11.600;2023-04-10T07:27:31;6.70;;;6.00;;
1829;SDS011;914;48.118;11.600;2023-04-10T07:29:57;6.87;;;6.17;;
1829;SDS011;914;48.118;11.600;2023-04-10T07:32:22;6.97;;;6.27;;
1829;SDS011;914;48.118;11.600;2023-04-10T07:34:48;8.10;;;6.30;;
1829;SDS011;914;48.118;11.600;2023-04-10T07:37:14;6.87;;;6.17;;
1829;SDS011;914;48.118;11.600;2023-04-10T07:39:40;8.23;;;6.33;;
1829;SDS011;914;48.118;11.600;2023-04-10T07:42:06;6.77;;;6.07;;
1829;SDS011;914;48.118;11.600;2023-04-10T07:44:31;6.27;;;5.67;;
1829;SDS011;914;48.118;11.600;2023-04-10T07:46:57;5.43;;;4.93;;
1829;SDS011;914;48.118;11.600;2023-04-10T07:49:23;6.57;;;5.70;;
1829;SDS011;914;48.118;11.600;2023-04-10T07:51:49;6.97;;;5.90;;
1829;SDS011;914;48.118;11.600;2023-04-10T07:54:14;5.90;;;5.30;;
1829;SDS011;914;48.118;11.600;2023-04-10T07:56:40;6.00;;;5.40;;
1829;SDS011;914;48.118;11.600;2023-04-10T07:59:05;7.13;;;5.43;;
1829;SDS011;914;48.118;11.600;2023-04-10T08:01:31;5.03;;;4.53;;
1829;SDS011;914;48.118;11.600;2023-04-10T08:03:57;5.57;;;5.00;;
1829;SDS011;914;48.118;11.600;2023-04-10T08:06:23;6.00;;;5.40;;
1829;SDS011;914;48.118;11.600;2023-04-10T08:08:49;5.63;;;4.93;;
1829;SDS011;914;48.118;11.600;2023-04-10T08:11:29;5.73;;;5.23;;
1829;SDS011;914;48.118;11.600;2023-04-10T08:13:59;5.40;;;4.77;;
1829;SDS011;914;48.118;11.600;2023-04-10T08:16:27;5.40;;;4.90;;
1829;SDS011;914;48.118;11.600;2023-04-10T08:18:54;5.20;;;4.70;;
1829;SDS011;914;48.118;11.600;2023-04-10T08:21:22;6.03;;;5.27;;
1829;SDS011;914;48.118;11.600;2023-04-10T08:23:55;5.80;;;5.27;;
1829;SDS011;914;48.118;11.600;2023-04-10T08:26:22;5.47;;;4.97;;
1829;SDS011;914;48.118;11.600;2023-04-10T08:28:50;5.33;;;4.67;;
1829;SDS011;914;48.118;11.600;2023-04-10T08:31:17;5.43;;;4.83;;
1829;SDS011;914;48.118;11.600;2023-04-10T08:33:43;4.20;;;3.70;;
1829;SDS011;914;48.118;11.600;2023-04-10T08:36:10;5.33;;;4.83;;
1829;SDS011;914;48.118;11.600;2023-04-10T08:38:45;5.10;;;4.60;;
1829;SDS011;914;48.118;11.600;2023-04-10T08:41:12;4.77;;;4.37;;
1829;SDS011;914;48.118;11.600;2023-04-10T08:43:39;5.17;;;4.67;;
1829;SDS011;914;48.118;11.600;2023-04-10T08:46:05;4.90;;;4.50;;
1829;SDS011;914;48.118;11.600;2023-04-10T08:48:34;5.10;;;4.70;;
1829;SDS011;914;48.118;11.600;2023-04-10T08:51:04;5.27;;;4.77;;
1829;SDS011;914;48.118;11.600;2023-04-10T08:53:31;7.00;;;5.20;;
1829;SDS011;914;48.118;11.600;2023-04-10T08:55:58;5.47;;;4.97;;
1829;SDS011;914;48.118;11.600;2023-04-10T08:58:28;5.00;;;4.50;;
1829;SDS011;914;48.118;11.600;2023-04-10T09:00:53;4.93;;;4.50;;
1829;SDS011;914;48.118;11.600;2023-04-10T09:03:19;5.07;;;4.67;;
1829;SDS011;914;48.118;11.600;2023-04-10T09:05:45;5.63;;;5.00;;
1829;SDS011;914;48.118;11.600;2023-04-10T09:08:13;5.03;;;4.63;;
1829;SDS011;914;48.118;11.600;2023-04-10T09:10:39;4.97;;;4.30;;
1829;SDS011;914;48.118;11.600;2023-04-10T09:13:05;4.60;;;4.20;;
1829;SDS011;914;48.118;11.600;2023-04-10T09:15:33;5.30;;;4.80;;
1829;SDS011;914;48.118;11.600;2023-04-10T09:18:19;5.07;;;4.40;;
1829;SDS011;914;48.118;11.600;2023-04-10T09:20:45;4.90;;;4.30;;
1829;SDS011;914;48.118;11.600;2023-04-10T09:23:21;4.90;;;4.50;;
1829;SDS011;914;48.118;11.600;2023-04-10T09:25:47;4.43;;;4.03;;
1829;SDS011;914;48.118;11.600;2023-04-10T09:28:12;4.60;;;4.20;;
1829;SDS011;914;48.118;11.600;2023-04-10T09:30:39;4.50;;;4.10;;
1829;SDS011;914;48.118;11.600;2023-04-10T09:33:21;4.97;;;4.50;;
1829;SDS011;914;48.118;11.600;2023-04-10T09:35:48;4.77;;;4.37;;
1829;SDS011;914;48.118;11.600;2023-04-10T09:38:15;5.20;;;4.70;;
1829;SDS011;914;48.118;11.600;2023-04-10T09:40:42;5.10;;;4.60;;
1829;SDS011;914;48.118;11.600;2023-04-10T09:43:24;4.97;;;4.57;;
1829;SDS011;914;48.118;11.600;2023-04-10T09:45:52;5.03;;;4.63;;
1829;SDS011;914;48.118;11.600;2023-04-10T09:48:19;4.77;;;4.30;;
1829;SDS011;914;48.118;11.600;2023-04-10T09:50:45;4.13;;;3.73;;
1829;SDS011;914;48.118;11.600;2023-04-10T09:53:12;4.70;;;4.30;;
1829;SDS011;914;48.118;11.600;2023-04-10T09:55:40;6.77;;;4.37;;
1829;SDS011;914;48.118;11.600;2023-04-10T09:58:07;4.17;;;3.83;;
1829;SDS011;914;48.118;11.600;2023-04-10T10:00:44;3.60;;;3.30;;
1829;SDS011;914;48.118;11.600;2023-04-10T10:03:12;4.10;;;3.80;;
1829;SDS011;914;48.118;11.600;2023-04-10T10:05:42;3.77;;;3.47;;
1829;SDS011;914;48.118;11.600;2023-04-10T10:08:09;3.80;;;3.50;;
1829;SDS011;914;48.118;11.600;2023-04-10T10:10:37;3.67;;;3.37;;
1829;SDS011;914;48.118;11.600;2023-04-10T10:13:09;3.80;;;3.50;;
1829;SDS011;914;48.118;11.600;2023-04-10T10:15:53;4.17;;;3.77;;
1829;SDS011;914;48.118;11.600;2023-04-10T10:18:26;3.67;;;3.37;;
1829;SDS011;914;48.118;11.600;2023-04-10T10:20:57;3.70;;;3.40;;
1829;SDS011;914;48.118;11.600;2023-04-10T10:23:24;3.27;;;3.00;;
1829;SDS011;914;48.118;11.600;2023-04-10T10:25:51;3.83;;;3.53;;
1829;SDS011;914;48.118;11.600;2023-04-10T10:28:19;3.90;;;3.60;;
1829;SDS011;914;48.118;11.600;2023-04-10T10:30:44;3.70;;;3.40;;
1829;SDS011;914;48.118;11.600;2023-04-10T10:33:12;4.47;;;4.07;;
1829;SDS011;914;48.118;11.600;2023-04-10T10:35:38;4.20;;;3.73;;
1829;SDS011;914;48.118;11.600;2023-04-10T10:38:05;3.73;;;3.43;;
1829;SDS011;914;48.118;11.600;2023-04-10T10:40:50;4.40;;;4.00;;
1829;SDS011;914;48.118;11.600;2023-04-10T10:43:26;3.90;;;3.60;;
1829;SDS011;914;48.118;11.600;2023-04-10T10:46:20;3.60;;;3.30;;
1829;SDS011;914;48.118;11.600;2023-04-10T10:48:57;3.50;;;3.20;;
1829;SDS011;914;48.118;11.600;2023-04-10T10:51:23;3.53;;;3.30;;
1829;SDS011;914;48.118;11.600;2023-04-10T10:54:26;3.47;;;3.17;;
1829;SDS011;914;48.118;11.600;2023-04-10T10:56:51;2.93;;;2.73;;
1829;SDS011;914;48.118;11.600;2023-04-10T10:59:17;3.27;;;2.97;;
1829;SDS011;914;48.118;11.600;2023-04-10T11:02:11;3.40;;;3.20;;
1829;SDS011;914;48.118;11.600;2023-04-10T11:07:13;4.20;;;3.90;;
1829;SDS011;914;48.118;11.600;2023-04-10T11:09:52;3.13;;;2.93;;
1829;SDS011;914;48.118;11.600;2023-04-10T11:12:22;3.60;;;3.30;;
1829;SDS011;914;48.118;11.600;2023-04-10T11:14:56;3.43;;;3.20;;
1829;SDS011;914;48.118;11.600;2023-04-10T11:20:19;2.80;;;2.60;;
1829;SDS011;914;48.118;11.600;2023-04-10T11:23:07;2.77;;;2.57;;
1829;SDS011;914;48.118;11.600;2023-04-10T11:25:46;2.80;;;2.60;;
1829;SDS011;914;48.118;11.600;2023-04-10T11:31:17;2.80;;;2.60;;
1829;SDS011;914;48.118;11.600;2023-04-10T11:33:48;3.20;;;3.00;;
1829;SDS011;914;48.118;11.600;2023-04-10T11:36:24;2.80;;;2.60;;
1829;SDS011;914;48.118;11.600;2023-04-10T11:41:20;3.10;;;2.80;;
1829;SDS011;914;48.118;11.600;2023-04-10T11:43:51;2.47;;;2.37;;
1829;SDS011;914;48.118;11.600;2023-04-10T11:46:17;2.87;;;2.67;;
1829;SDS011;914;48.118;11.600;2023-04-10T11:48:43;2.60;;;2.40;;
1829;SDS011;914;48.118;11.600;2023-04-10T11:51:09;2.60;;;2.40;;
1829;SDS011;914;48.118;11.600;2023-04-10T11:53:36;3.00;;;2.80;;
1829;SDS011;914;48.118;11.600;2023-04-10T11:56:02;3.07;;;2.87;;
1829;SDS011;914;48.118;11.600;2023-04-10T11:58:28;3.92;;;2.88;;
1829;SDS011;914;48.118;11.600;2023-04-10T12:03:35;3.13;;;2.92;;
1829;SDS011;914;48.118;11.600;2023-04-10T12:06:06;3.65;;;3.35;;
1829;SDS011;914;48.118;11.600;2023-04-10T12:08:40;2.80;;;2.60;;
1829;SDS011;914;48.118;11.600;2023-04-10T12:11:11;2.80;;;2.60;;
1829;SDS011;914;48.118;11.600;2023-04-10T12:13:38;2.60;;;2.40;;
1829;SDS011;914;48.118;11.600;2023-04-10T12:16:07;2.97;;;2.78;;
1829;SDS011;914;48.118;11.600;2023-04-10T12:18:34;2.40;;;2.30;;
1829;SDS011;914;48.118;11.600;2023-04-10T12:21:01;3.20;;;3.00;;
1829;SDS011;914;48.118;11.600;2023-04-10T12:23:28;2.90;;;2.70;;
1829;SDS011;914;48.118;11.600;2023-04-10T12:26:08;2.70;;;2.50;;
1829;SDS011;914;48.118;11.600;2023-04-10T12:28:39;2.50;;;2.40;;
1829;SDS011;914;48.118;11.600;2023-04-10T12:31:06;2.80;;;2.60;;
1829;SDS011;914;48.118;11.600;2023-04-10T12:33:31;2.70;;;2.50;;
1829;SDS011;914;48.118;11.600;2023-04-10T12:35:57;2.60;;;2.45;;
1829;SDS011;914;48.118;11.600;2023-04-10T12:38:36;2.80;;;2.60;;
1829;SDS011;914;48.118;11.600;2023-04-10T12:41:06;2.40;;;2.30;;
1829;SDS011;914;48.118;11.600;2023-04-10T12:43:33;2.38;;;2.28;;
1829;SDS011;914;48.118;11.600;2023-04-10T12:46:00;2.95;;;2.72;;
1829;SDS011;914;48.118;11.600;2023-04-10T12:48:26;2.60;;;2.50;;
1829;SDS011;914;48.118;11.600;2023-04-10T12:50:52;2.78;;;2.58;;
1829;SDS011;914;48.118;11.600;2023-04-10T12:53:17;2.33;;;2.22;;
1829;SDS011;914;48.118;11.600;2023-04-10T12:56:03;2.42;;;2.30;;
1829;SDS011;914;48.118;11.600;2023-04-10T12:58:31;2.70;;;2.60;;
1829;SDS011;914;48.118;11.600;2023-04-10T13:00:57;2.80;;;2.60;;
1829;SDS011;914;48.118;11.600;2023-04-10T13:03:28;2.50;;;2.40;;
1829;SDS011;914;48.118;11.600;2023-04-10T13:05:55;2.45;;;2.35;;
1829;SDS011;914;48.118;11.600;2023-04-10T13:08:20;2.70;;;2.50;;
1829;SDS011;914;48.118;11.600;2023-04-10T13:10:46;2.80;;;2.60;;
1829;SDS011;914;48.118;11.600;2023-04-10T13:13:13;2.80;;;2.60;;
1829;SDS011;914;48.118;11.600;2023-04-10T13:15:39;3.20;;;3.00;;
1829;SDS011;914;48.118;11.600;2023-04-10T13:18:05;2.47;;;2.33;;
1829;SDS011;914;48.118;11.600;2023-04-10T13:20:34;2.35;;;2.25;;
1829;SDS011;914;48.118;11.600;2023-04-10T13:23:01;2.40;;;2.30;;
1829;SDS011;914;48.118;11.600;2023-04-10T13:25:29;2.50;;;2.33;;
1829;SDS011;914;48.118;11.600;2023-04-10T13:27:57;2.40;;;2.30;;
1829;SDS011;914;48.118;11.600;2023-04-10T13:30:23;2.42;;;2.33;;
1829;SDS011;914;48.118;11.600;2023-04-10T13:32:49;2.55;;;2.40;;
1829;SDS011;914;48.118;11.600;2023-04-10T13:35:15;2.83;;;2.63;;
1829;SDS011;914;48.118;11.600;2023-04-10T13:37:40;2.60;;;2.45;;
1829;SDS011;914;48.118;11.600;2023-04-10T13:40:06;2.40;;;2.30;;
1829;SDS011;914;48.118;11.600;2023-04-10T13:42:32;2.60;;;2.40;;
1829;SDS011;914;48.118;11.600;2023-04-10T13:44:58;2.50;;;2.40;;
1829;SDS011;914;48.118;11.600;2023-04-10T13:47:23;2.78;;;2.58;;
1829;SDS011;914;48.118;11.600;2023-04-10T13:49:49;2.40;;;2.30;;
1829;SDS011;914;48.118;11.600;2023-04-10T13:52:14;2.25;;;2.15;;
1829;SDS011;914;48.118;11.600;2023-04-10T13:54:40;2.50;;;2.30;;
1829;SDS011;914;48.118;11.600;2023-04-10T13:57:07;2.78;;;2.20;;
1829;SDS011;914;48.118;11.600;2023-04-10T13:59:32;2.53;;;2.40;;
1829;SDS011;914;48.118;11.600;2023-04-10T14:01:58;2.53;;;2.35;;
1829;SDS011;914;48.118;11.600;2023-04-10T14:04:23;3.58;;;2.70;;
1829;SDS011;914;48.118;11.600;2023-04-10T14:06:49;3.17;;;2.88;;
1829;SDS011;914;48.118;11.600;2023-04-10T14:09:17;3.00;;;2.80;;
1829;SDS011;914;48.118;11.600;2023-04-10T14:11:43;2.40;;;2.10;;
1829;SDS011;914;48.118;11.600;2023-04-10T14:14:09;2.50;;;2.40;;
1829;SDS011;914;48.118;11.600;2023-04-10T14:16:35;2.50;;;2.40;;
1829;SDS011;914;48.118;11.600;2023-04-10T14:19:01;2.33;;;2.13;;
1829;SDS011;914;48.118;11.600;2023-04-10T14:21:27;2.83;;;2.63;;
1829;SDS011;914;48.118;11.600;2023-04-10T14:23:52;2.40;;;2.30;;
1829;SDS011;914;48.118;11.600;2023-04-10T14:26:18;2.67;;;2.47;;
1829;SDS011;914;48.118;11.600;2023-04-10T14:28:43;2.45;;;2.30;;
1829;SDS011;914;48.118;11.600;2023-04-10T14:31:09;2.65;;;2.45;;
1829;SDS011;914;48.118;11.600;2023-04-10T14:33:36;2.10;;;2.00;;
1829;SDS011;914;48.118;11.600;2023-04-10T14:36:01;2.60;;;2.40;;
1829;SDS011;914;48.118;11.600;2023-04-10T14:38:27;2.45;;;2.30;;
1829;SDS011;914;48.118;11.600;2023-04-10T14:40:53;2.42;;;2.33;;
1829;SDS011;914;48.118;11.600;2023-04-10T14:43:18;2.47;;;2.35;;
1829;SDS011;914;48.118;11.600;2023-04-10T14:45:44;2.45;;;2.25;;
1829;SDS011;914;48.118;11.600;2023-04-10T14:48:11;2.60;;;2.40;;
1829;SDS011;914;48.118;11.600;2023-04-10T14:50:36;2.45;;;2.25;;
1829;SDS011;914;48.118;11.600;2023-04-10T14:53:02;2.88;;;2.65;;
1829;SDS011;914;48.118;11.600;2023-04-10T14:55:30;2.45;;;2.28;;
1829;SDS011;914;48.118;11.600;2023-04-10T14:57:55;2.30;;;2.20;;
1829;SDS011;914;48.118;11.600;2023-04-10T15:00:21;2.50;;;2.30;;
1829;SDS011;914;48.118;11.600;2023-04-10T15:02:49;2.37;;;2.17;;
1829;SDS011;914;48.118;11.600;2023-04-10T15:05:15;2.60;;;2.40;;
1829;SDS011;914;48.118;11.600;2023-04-10T15:07:40;2.53;;;2.33;;
1829;SDS011;914;48.118;11.600;2023-04-10T15:10:06;2.50;;;2.33;;
1829;SDS011;914;48.118;11.600;2023-04-10T15:12:34;2.40;;;2.20;;
1829;SDS011;914;48.118;11.600;2023-04-10T15:15:00;2.40;;;2.30;;
1829;SDS011;914;48.118;11.600;2023-04-10T15:17:26;2.70;;;2.50;;
1829;SDS011;914;48.118;11.600;2023-04-10T15:19:52;2.20;;;2.10;;
1829;SDS011;914;48.118;11.600;2023-04-10T15:22:18;2.30;;;2.10;;
1829;SDS011;914;48.118;11.600;2023-04-10T15:24:43;2.57;;;2.37;;
1829;SDS011;914;48.118;11.600;2023-04-10T15:27:09;2.50;;;2.30;;
1829;SDS011;914;48.118;11.600;2023-04-10T15:29:40;3.07;;;2.00;;
1829;SDS011;914;48.118;11.600;2023-04-10T15:32:06;2.60;;;2.40;;
1829;SDS011;914;48.118;11.600;2023-04-10T15:34:32;2.43;;;2.27;;
1829;SDS011;914;48.118;11.600;2023-04-10T15:36:58;2.03;;;1.93;;
1829;SDS011;914;48.118;11.600;2023-04-10T15:39:24;2.30;;;2.13;;
1829;SDS011;914;48.118;11.600;2023-04-10T15:41:50;2.40;;;2.20;;
1829;SDS011;914;48.118;11.600;2023-04-10T15:44:15;2.88;;;2.63;;
1829;SDS011;914;48.118;11.600;2023-04-10T15:46:41;2.40;;;2.20;;